Pratt, Minnesota
Current Conditions -  °F | °C
As of 6:35 PM on Sunday 25 Jan 2015 (Local Time) from KOWA Reporting Station
Overcast Overcast  
Wind Chill: 23°   Ceiling: 1500
Heat Index: 23°   Visibility: 10mi
Dew Point: 18°   Wind: 0mph
Humidity: 80%   Direction: NA
Pressure: 30.05"   Gusts: NA
Location:  44.0575°N, 93.2082°W
Report Text: KOWA 260035Z AUTO 00000KT 10SM OVC015 M05/M08 A3005 RMK AO2
Loading
Personal Weather Stations






























Interactive Weather Map New forecast layout! Learn more

10-Day Weather Forecast

Advertisements
Track Severe Weather on mobile